Terminal Aerodrome Forecast
Issued by NWS

Home | Current Version | Previous Version | Text Only | Print | Product List | Glossary On
Versions: 1 2 3 4 5 6 7 8 9 10 11 12 13 14 15 16
000
FTUS44 KBMX 061720
TAFMGM
TAF
KMGM 061720Z 0618/0718 26010G17KT P6SM SCT025 OVC040
     FM070000 30007KT P6SM OVC007
     FM071200 33004KT P6SM OVC004=

USA.gov is the U.S. government's official web portal to all federal, state and local government web resources and services.